sensor_id;sensor_type;location;lat;lon;timestamp;P1;durP1;ratioP1;P2;durP2;ratioP2
13520;SDS011;6832;51.186;3.236;2022-11-25T00:02:16;11.07;;;3.27;;
13520;SDS011;6832;51.186;3.236;2022-11-25T00:04:44;7.60;;;3.10;;
13520;SDS011;6832;51.186;3.236;2022-11-25T00:07:12;10.43;;;2.87;;
13520;SDS011;6832;51.186;3.236;2022-11-25T00:09:39;15.40;;;5.37;;
13520;SDS011;6832;51.186;3.236;2022-11-25T00:12:09;10.97;;;3.40;;
13520;SDS011;6832;51.186;3.236;2022-11-25T00:14:42;10.50;;;3.63;;
13520;SDS011;6832;51.186;3.236;2022-11-25T00:17:10;12.67;;;3.43;;
13520;SDS011;6832;51.186;3.236;2022-11-25T00:19:38;14.10;;;3.90;;
13520;SDS011;6832;51.186;3.236;2022-11-25T00:22:06;11.60;;;3.00;;
13520;SDS011;6832;51.186;3.236;2022-11-25T00:24:35;13.20;;;3.73;;
13520;SDS011;6832;51.186;3.236;2022-11-25T00:27:08;10.90;;;2.97;;
13520;SDS011;6832;51.186;3.236;2022-11-25T00:29:38;10.47;;;2.63;;
13520;SDS011;6832;51.186;3.236;2022-11-25T00:32:06;11.00;;;3.00;;
13520;SDS011;6832;51.186;3.236;2022-11-25T00:34:37;9.53;;;2.60;;
13520;SDS011;6832;51.186;3.236;2022-11-25T00:37:05;10.00;;;3.23;;
13520;SDS011;6832;51.186;3.236;2022-11-25T00:39:37;10.50;;;3.37;;
13520;SDS011;6832;51.186;3.236;2022-11-25T00:42:09;10.53;;;3.17;;
13520;SDS011;6832;51.186;3.236;2022-11-25T00:44:55;10.23;;;2.37;;
13520;SDS011;6832;51.186;3.236;2022-11-25T00:47:23;9.70;;;2.93;;
13520;SDS011;6832;51.186;3.236;2022-11-25T00:49:52;11.63;;;3.40;;
13520;SDS011;6832;51.186;3.236;2022-11-25T00:52:20;11.10;;;3.13;;
13520;SDS011;6832;51.186;3.236;2022-11-25T00:57:28;7.83;;;2.50;;
13520;SDS011;6832;51.186;3.236;2022-11-25T00:59:56;5.80;;;2.00;;
13520;SDS011;6832;51.186;3.236;2022-11-25T01:02:28;7.40;;;2.57;;
13520;SDS011;6832;51.186;3.236;2022-11-25T01:04:56;8.03;;;2.93;;
13520;SDS011;6832;51.186;3.236;2022-11-25T01:07:26;11.70;;;3.63;;
13520;SDS011;6832;51.186;3.236;2022-11-25T01:09:54;12.13;;;3.87;;
13520;SDS011;6832;51.186;3.236;2022-11-25T01:12:29;9.33;;;3.43;;
13520;SDS011;6832;51.186;3.236;2022-11-25T01:14:57;10.90;;;3.33;;
13520;SDS011;6832;51.186;3.236;2022-11-25T01:17:25;9.33;;;2.77;;
13520;SDS011;6832;51.186;3.236;2022-11-25T01:19:56;8.33;;;2.93;;
13520;SDS011;6832;51.186;3.236;2022-11-25T01:22:24;9.37;;;3.13;;
13520;SDS011;6832;51.186;3.236;2022-11-25T01:24:54;9.40;;;2.90;;
13520;SDS011;6832;51.186;3.236;2022-11-25T01:27:22;10.27;;;3.93;;
13520;SDS011;6832;51.186;3.236;2022-11-25T01:29:56;8.83;;;2.83;;
13520;SDS011;6832;51.186;3.236;2022-11-25T01:32:23;9.03;;;3.30;;
13520;SDS011;6832;51.186;3.236;2022-11-25T01:34:51;9.87;;;3.43;;
13520;SDS011;6832;51.186;3.236;2022-11-25T01:37:32;10.50;;;4.10;;
13520;SDS011;6832;51.186;3.236;2022-11-25T01:39:59;9.73;;;3.50;;
13520;SDS011;6832;51.186;3.236;2022-11-25T01:42:30;10.17;;;3.53;;
13520;SDS011;6832;51.186;3.236;2022-11-25T01:48:02;10.13;;;3.80;;
13520;SDS011;6832;51.186;3.236;2022-11-25T01:50:42;8.80;;;3.40;;
13520;SDS011;6832;51.186;3.236;2022-11-25T01:53:13;6.47;;;2.70;;
13520;SDS011;6832;51.186;3.236;2022-11-25T01:55:46;6.50;;;2.73;;
13520;SDS011;6832;51.186;3.236;2022-11-25T01:58:21;8.40;;;3.17;;
13520;SDS011;6832;51.186;3.236;2022-11-25T02:00:55;6.57;;;2.57;;
13520;SDS011;6832;51.186;3.236;2022-11-25T02:03:25;9.30;;;3.50;;
13520;SDS011;6832;51.186;3.236;2022-11-25T02:06:02;10.83;;;3.40;;
13520;SDS011;6832;51.186;3.236;2022-11-25T02:08:33;7.83;;;3.13;;
13520;SDS011;6832;51.186;3.236;2022-11-25T02:11:02;8.03;;;3.00;;
13520;SDS011;6832;51.186;3.236;2022-11-25T02:13:32;6.20;;;2.70;;
13520;SDS011;6832;51.186;3.236;2022-11-25T02:16:04;9.70;;;3.13;;
13520;SDS011;6832;51.186;3.236;2022-11-25T02:18:32;16.67;;;4.93;;
13520;SDS011;6832;51.186;3.236;2022-11-25T02:21:03;8.80;;;3.00;;
13520;SDS011;6832;51.186;3.236;2022-11-25T02:23:33;7.20;;;2.70;;
13520;SDS011;6832;51.186;3.236;2022-11-25T02:26:06;7.23;;;2.70;;
13520;SDS011;6832;51.186;3.236;2022-11-25T02:28:35;11.17;;;3.87;;
13520;SDS011;6832;51.186;3.236;2022-11-25T02:31:05;8.70;;;3.07;;
13520;SDS011;6832;51.186;3.236;2022-11-25T02:33:33;9.77;;;3.63;;
13520;SDS011;6832;51.186;3.236;2022-11-25T02:36:01;6.73;;;2.60;;
13520;SDS011;6832;51.186;3.236;2022-11-25T02:38:35;9.10;;;2.90;;
13520;SDS011;6832;51.186;3.236;2022-11-25T02:41:08;9.40;;;2.47;;
13520;SDS011;6832;51.186;3.236;2022-11-25T02:43:41;10.57;;;3.47;;
13520;SDS011;6832;51.186;3.236;2022-11-25T02:46:09;13.03;;;3.97;;
13520;SDS011;6832;51.186;3.236;2022-11-25T02:48:39;13.10;;;3.97;;
13520;SDS011;6832;51.186;3.236;2022-11-25T02:51:10;7.03;;;2.17;;
13520;SDS011;6832;51.186;3.236;2022-11-25T02:53:41;7.10;;;2.57;;
13520;SDS011;6832;51.186;3.236;2022-11-25T02:56:17;9.20;;;2.53;;
13520;SDS011;6832;51.186;3.236;2022-11-25T02:58:47;9.83;;;2.47;;
13520;SDS011;6832;51.186;3.236;2022-11-25T03:01:16;10.97;;;3.50;;
13520;SDS011;6832;51.186;3.236;2022-11-25T03:03:45;14.13;;;4.27;;
13520;SDS011;6832;51.186;3.236;2022-11-25T03:06:13;6.17;;;2.00;;
13520;SDS011;6832;51.186;3.236;2022-11-25T03:08:42;9.07;;;2.87;;
13520;SDS011;6832;51.186;3.236;2022-11-25T03:13:42;7.73;;;2.57;;
13520;SDS011;6832;51.186;3.236;2022-11-25T03:16:11;7.13;;;2.60;;
13520;SDS011;6832;51.186;3.236;2022-11-25T03:18:43;15.77;;;4.60;;
13520;SDS011;6832;51.186;3.236;2022-11-25T03:21:12;10.83;;;3.07;;
13520;SDS011;6832;51.186;3.236;2022-11-25T03:23:39;8.30;;;2.87;;
13520;SDS011;6832;51.186;3.236;2022-11-25T03:26:08;5.47;;;1.90;;
13520;SDS011;6832;51.186;3.236;2022-11-25T03:28:35;9.57;;;2.67;;
13520;SDS011;6832;51.186;3.236;2022-11-25T03:31:10;8.80;;;2.60;;
13520;SDS011;6832;51.186;3.236;2022-11-25T03:33:44;5.47;;;2.13;;
13520;SDS011;6832;51.186;3.236;2022-11-25T03:36:16;7.77;;;2.40;;
13520;SDS011;6832;51.186;3.236;2022-11-25T03:38:51;8.33;;;2.90;;
13520;SDS011;6832;51.186;3.236;2022-11-25T03:41:18;7.33;;;2.40;;
13520;SDS011;6832;51.186;3.236;2022-11-25T03:43:46;8.33;;;2.53;;
13520;SDS011;6832;51.186;3.236;2022-11-25T03:46:16;9.37;;;1.80;;
13520;SDS011;6832;51.186;3.236;2022-11-25T03:48:45;9.13;;;2.70;;
13520;SDS011;6832;51.186;3.236;2022-11-25T03:51:15;7.67;;;1.93;;
13520;SDS011;6832;51.186;3.236;2022-11-25T03:53:42;8.50;;;2.73;;
13520;SDS011;6832;51.186;3.236;2022-11-25T03:56:12;4.90;;;1.60;;
13520;SDS011;6832;51.186;3.236;2022-11-25T03:58:43;11.20;;;3.10;;
13520;SDS011;6832;51.186;3.236;2022-11-25T04:01:13;7.50;;;2.03;;
13520;SDS011;6832;51.186;3.236;2022-11-25T04:03:41;12.43;;;3.63;;
13520;SDS011;6832;51.186;3.236;2022-11-25T04:06:09;10.33;;;3.30;;
13520;SDS011;6832;51.186;3.236;2022-11-25T04:08:36;9.03;;;2.90;;
13520;SDS011;6832;51.186;3.236;2022-11-25T04:11:08;9.27;;;2.90;;
13520;SDS011;6832;51.186;3.236;2022-11-25T04:13:41;10.07;;;2.70;;
13520;SDS011;6832;51.186;3.236;2022-11-25T04:16:12;8.30;;;2.73;;
13520;SDS011;6832;51.186;3.236;2022-11-25T04:19:00;9.90;;;3.17;;
13520;SDS011;6832;51.186;3.236;2022-11-25T04:21:35;6.20;;;1.93;;
13520;SDS011;6832;51.186;3.236;2022-11-25T04:24:08;8.23;;;2.63;;
13520;SDS011;6832;51.186;3.236;2022-11-25T04:26:42;17.30;;;3.83;;
13520;SDS011;6832;51.186;3.236;2022-11-25T04:29:13;6.87;;;2.20;;
13520;SDS011;6832;51.186;3.236;2022-11-25T04:31:42;9.17;;;2.77;;
13520;SDS011;6832;51.186;3.236;2022-11-25T04:34:11;7.77;;;1.97;;
13520;SDS011;6832;51.186;3.236;2022-11-25T04:36:44;10.47;;;2.80;;
13520;SDS011;6832;51.186;3.236;2022-11-25T04:39:13;9.97;;;2.90;;
13520;SDS011;6832;51.186;3.236;2022-11-25T04:41:40;15.33;;;4.10;;
13520;SDS011;6832;51.186;3.236;2022-11-25T04:46:42;6.00;;;2.03;;
13520;SDS011;6832;51.186;3.236;2022-11-25T04:49:11;8.27;;;2.30;;
13520;SDS011;6832;51.186;3.236;2022-11-25T04:51:39;7.37;;;2.20;;
13520;SDS011;6832;51.186;3.236;2022-11-25T04:54:07;6.97;;;2.33;;
13520;SDS011;6832;51.186;3.236;2022-11-25T04:56:38;9.10;;;2.57;;
13520;SDS011;6832;51.186;3.236;2022-11-25T04:59:07;7.73;;;2.30;;
13520;SDS011;6832;51.186;3.236;2022-11-25T05:04:28;7.40;;;1.97;;
13520;SDS011;6832;51.186;3.236;2022-11-25T05:07:01;9.20;;;2.37;;
13520;SDS011;6832;51.186;3.236;2022-11-25T05:09:30;8.80;;;2.67;;
13520;SDS011;6832;51.186;3.236;2022-11-25T05:11:57;8.73;;;2.57;;
13520;SDS011;6832;51.186;3.236;2022-11-25T05:14:26;7.87;;;2.57;;
13520;SDS011;6832;51.186;3.236;2022-11-25T05:16:56;8.63;;;2.83;;
13520;SDS011;6832;51.186;3.236;2022-11-25T05:19:33;9.43;;;2.57;;
13520;SDS011;6832;51.186;3.236;2022-11-25T05:22:05;8.93;;;2.80;;
13520;SDS011;6832;51.186;3.236;2022-11-25T05:24:43;9.70;;;2.93;;
13520;SDS011;6832;51.186;3.236;2022-11-25T05:27:11;8.33;;;2.70;;
13520;SDS011;6832;51.186;3.236;2022-11-25T05:29:40;7.63;;;2.27;;
13520;SDS011;6832;51.186;3.236;2022-11-25T05:32:10;8.77;;;2.53;;
13520;SDS011;6832;51.186;3.236;2022-11-25T05:34:39;9.57;;;2.67;;
13520;SDS011;6832;51.186;3.236;2022-11-25T05:37:09;9.93;;;2.63;;
13520;SDS011;6832;51.186;3.236;2022-11-25T05:39:39;13.53;;;3.33;;
13520;SDS011;6832;51.186;3.236;2022-11-25T05:42:09;8.23;;;2.73;;
13520;SDS011;6832;51.186;3.236;2022-11-25T05:44:45;6.77;;;2.27;;
13520;SDS011;6832;51.186;3.236;2022-11-25T05:47:16;11.47;;;3.50;;
13520;SDS011;6832;51.186;3.236;2022-11-25T05:49:51;8.03;;;3.00;;
13520;SDS011;6832;51.186;3.236;2022-11-25T05:54:50;13.17;;;3.30;;
13520;SDS011;6832;51.186;3.236;2022-11-25T05:57:24;9.87;;;3.23;;
13520;SDS011;6832;51.186;3.236;2022-11-25T05:59:53;10.93;;;3.27;;
13520;SDS011;6832;51.186;3.236;2022-11-25T06:02:21;9.97;;;2.93;;
13520;SDS011;6832;51.186;3.236;2022-11-25T06:04:52;8.47;;;2.60;;
13520;SDS011;6832;51.186;3.236;2022-11-25T06:07:23;15.90;;;3.17;;
13520;SDS011;6832;51.186;3.236;2022-11-25T06:10:13;12.60;;;3.80;;
13520;SDS011;6832;51.186;3.236;2022-11-25T06:12:43;9.37;;;2.87;;
13520;SDS011;6832;51.186;3.236;2022-11-25T06:16:27;9.93;;;3.00;;
13520;SDS011;6832;51.186;3.236;2022-11-25T06:19:03;8.73;;;2.97;;
13520;SDS011;6832;51.186;3.236;2022-11-25T06:21:32;11.33;;;3.03;;
13520;SDS011;6832;51.186;3.236;2022-11-25T06:24:01;10.00;;;2.97;;
13520;SDS011;6832;51.186;3.236;2022-11-25T06:26:35;10.30;;;2.77;;
13520;SDS011;6832;51.186;3.236;2022-11-25T06:31:40;7.87;;;2.77;;
13520;SDS011;6832;51.186;3.236;2022-11-25T06:34:20;11.90;;;3.93;;
13520;SDS011;6832;51.186;3.236;2022-11-25T06:36:57;13.63;;;4.30;;
13520;SDS011;6832;51.186;3.236;2022-11-25T06:39:47;10.80;;;2.93;;
13520;SDS011;6832;51.186;3.236;2022-11-25T06:42:14;10.03;;;3.60;;
13520;SDS011;6832;51.186;3.236;2022-11-25T06:44:45;11.47;;;3.50;;
13520;SDS011;6832;51.186;3.236;2022-11-25T06:50:27;7.40;;;2.43;;
13520;SDS011;6832;51.186;3.236;2022-11-25T06:53:00;8.50;;;3.30;;
13520;SDS011;6832;51.186;3.236;2022-11-25T06:59:18;15.70;;;4.60;;
13520;SDS011;6832;51.186;3.236;2022-11-25T07:01:56;13.43;;;3.93;;
13520;SDS011;6832;51.186;3.236;2022-11-25T07:04:29;10.20;;;2.40;;
13520;SDS011;6832;51.186;3.236;2022-11-25T07:06:56;13.17;;;3.80;;
13520;SDS011;6832;51.186;3.236;2022-11-25T07:09:32;11.13;;;3.13;;
13520;SDS011;6832;51.186;3.236;2022-11-25T07:22:20;15.13;;;3.87;;
13520;SDS011;6832;51.186;3.236;2022-11-25T07:25:30;12.53;;;3.77;;
13520;SDS011;6832;51.186;3.236;2022-11-25T07:28:04;10.63;;;3.37;;
13520;SDS011;6832;51.186;3.236;2022-11-25T07:33:05;14.77;;;4.03;;
13520;SDS011;6832;51.186;3.236;2022-11-25T07:35:35;11.83;;;3.97;;
13520;SDS011;6832;51.186;3.236;2022-11-25T07:38:03;12.73;;;4.03;;
13520;SDS011;6832;51.186;3.236;2022-11-25T07:40:33;10.57;;;3.30;;
13520;SDS011;6832;51.186;3.236;2022-11-25T07:43:01;13.53;;;4.33;;
13520;SDS011;6832;51.186;3.236;2022-11-25T07:45:29;11.50;;;3.57;;
13520;SDS011;6832;51.186;3.236;2022-11-25T07:47:57;17.53;;;5.13;;
13520;SDS011;6832;51.186;3.236;2022-11-25T07:50:27;14.70;;;3.93;;
13520;SDS011;6832;51.186;3.236;2022-11-25T07:52:55;10.77;;;3.50;;
13520;SDS011;6832;51.186;3.236;2022-11-25T07:55:24;12.33;;;2.80;;
13520;SDS011;6832;51.186;3.236;2022-11-25T07:58:20;13.30;;;4.23;;
13520;SDS011;6832;51.186;3.236;2022-11-25T08:00:48;8.50;;;2.87;;
13520;SDS011;6832;51.186;3.236;2022-11-25T08:03:17;9.60;;;3.07;;
13520;SDS011;6832;51.186;3.236;2022-11-25T08:05:44;9.23;;;2.27;;
13520;SDS011;6832;51.186;3.236;2022-11-25T08:08:11;11.67;;;2.87;;
13520;SDS011;6832;51.186;3.236;2022-11-25T08:10:38;12.20;;;3.37;;
13520;SDS011;6832;51.186;3.236;2022-11-25T08:13:12;8.60;;;3.07;;
13520;SDS011;6832;51.186;3.236;2022-11-25T08:15:52;8.67;;;2.97;;
13520;SDS011;6832;51.186;3.236;2022-11-25T08:18:27;9.30;;;3.13;;
13520;SDS011;6832;51.186;3.236;2022-11-25T08:20:57;9.20;;;3.13;;
13520;SDS011;6832;51.186;3.236;2022-11-25T08:23:30;4.03;;;1.97;;
13520;SDS011;6832;51.186;3.236;2022-11-25T08:26:01;10.00;;;3.33;;
13520;SDS011;6832;51.186;3.236;2022-11-25T08:28:29;7.47;;;2.87;;
13520;SDS011;6832;51.186;3.236;2022-11-25T08:31:01;12.93;;;3.87;;
13520;SDS011;6832;51.186;3.236;2022-11-25T08:33:32;8.93;;;2.60;;
13520;SDS011;6832;51.186;3.236;2022-11-25T08:36:06;12.70;;;3.83;;
13520;SDS011;6832;51.186;3.236;2022-11-25T08:38:35;8.40;;;2.90;;
13520;SDS011;6832;51.186;3.236;2022-11-25T08:41:10;7.63;;;2.73;;
13520;SDS011;6832;51.186;3.236;2022-11-25T08:43:38;8.93;;;3.10;;
13520;SDS011;6832;51.186;3.236;2022-11-25T08:46:08;8.90;;;3.10;;
13520;SDS011;6832;51.186;3.236;2022-11-25T08:48:38;10.57;;;3.10;;
13520;SDS011;6832;51.186;3.236;2022-11-25T08:51:17;17.23;;;5.00;;
13520;SDS011;6832;51.186;3.236;2022-11-25T08:53:48;9.53;;;3.80;;
13520;SDS011;6832;51.186;3.236;2022-11-25T08:56:18;9.73;;;3.50;;
13520;SDS011;6832;51.186;3.236;2022-11-25T08:58:49;11.13;;;3.77;;
13520;SDS011;6832;51.186;3.236;2022-11-25T09:01:20;14.20;;;4.47;;
13520;SDS011;6832;51.186;3.236;2022-11-25T09:03:50;11.80;;;4.00;;
13520;SDS011;6832;51.186;3.236;2022-11-25T09:06:27;15.93;;;4.47;;
13520;SDS011;6832;51.186;3.236;2022-11-25T09:08:55;10.93;;;3.77;;
13520;SDS011;6832;51.186;3.236;2022-11-25T09:11:31;11.73;;;4.10;;
13520;SDS011;6832;51.186;3.236;2022-11-25T09:14:06;13.87;;;3.37;;
13520;SDS011;6832;51.186;3.236;2022-11-25T09:16:38;12.60;;;4.37;;
13520;SDS011;6832;51.186;3.236;2022-11-25T09:19:07;15.47;;;4.63;;
13520;SDS011;6832;51.186;3.236;2022-11-25T09:24:10;11.47;;;3.43;;
13520;SDS011;6832;51.186;3.236;2022-11-25T09:26:38;11.17;;;3.77;;
13520;SDS011;6832;51.186;3.236;2022-11-25T09:29:06;9.70;;;3.60;;
13520;SDS011;6832;51.186;3.236;2022-11-25T09:31:35;8.60;;;3.47;;
13520;SDS011;6832;51.186;3.236;2022-11-25T09:34:05;12.17;;;4.13;;
13520;SDS011;6832;51.186;3.236;2022-11-25T09:36:36;9.37;;;3.33;;
13520;SDS011;6832;51.186;3.236;2022-11-25T09:39:03;11.87;;;4.03;;
13520;SDS011;6832;51.186;3.236;2022-11-25T09:41:35;14.00;;;4.63;;
13520;SDS011;6832;51.186;3.236;2022-11-25T09:44:35;13.17;;;4.17;;
13520;SDS011;6832;51.186;3.236;2022-11-25T09:47:32;8.50;;;3.43;;
13520;SDS011;6832;51.186;3.236;2022-11-25T09:50:16;11.57;;;4.07;;
13520;SDS011;6832;51.186;3.236;2022-11-25T09:53:00;9.13;;;3.13;;
13520;SDS011;6832;51.186;3.236;2022-11-25T09:55:36;9.63;;;2.87;;
13520;SDS011;6832;51.186;3.236;2022-11-25T09:58:15;13.33;;;3.27;;
13520;SDS011;6832;51.186;3.236;2022-11-25T10:01:03;15.63;;;4.30;;
13520;SDS011;6832;51.186;3.236;2022-11-25T10:06:44;13.53;;;4.20;;
13520;SDS011;6832;51.186;3.236;2022-11-25T10:09:24;12.83;;;3.33;;
13520;SDS011;6832;51.186;3.236;2022-11-25T10:12:12;10.13;;;3.50;;
13520;SDS011;6832;51.186;3.236;2022-11-25T10:14:54;15.03;;;4.33;;
13520;SDS011;6832;51.186;3.236;2022-11-25T10:17:58;18.73;;;3.53;;
13520;SDS011;6832;51.186;3.236;2022-11-25T10:49:03;17.10;;;4.30;;
13520;SDS011;6832;51.186;3.236;2022-11-25T10:51:49;8.07;;;3.00;;
13520;SDS011;6832;51.186;3.236;2022-11-25T10:54:28;15.97;;;3.73;;
13520;SDS011;6832;51.186;3.236;2022-11-25T10:57:15;13.17;;;2.97;;
13520;SDS011;6832;51.186;3.236;2022-11-25T11:00:27;13.53;;;3.43;;
13520;SDS011;6832;51.186;3.236;2022-11-25T11:03:15;9.77;;;2.93;;
13520;SDS011;6832;51.186;3.236;2022-11-25T11:12:53;9.23;;;2.57;;
13520;SDS011;6832;51.186;3.236;2022-11-25T11:15:52;14.87;;;3.97;;
13520;SDS011;6832;51.186;3.236;2022-11-25T11:18:55;13.87;;;3.83;;
13520;SDS011;6832;51.186;3.236;2022-11-25T11:31:56;19.23;;;3.87;;
13520;SDS011;6832;51.186;3.236;2022-11-25T11:38:30;17.10;;;4.10;;
13520;SDS011;6832;51.186;3.236;2022-11-25T11:48:24;17.50;;;3.70;;
13520;SDS011;6832;51.186;3.236;2022-11-25T11:51:11;15.03;;;4.07;;
13520;SDS011;6832;51.186;3.236;2022-11-25T11:53:59;13.53;;;4.60;;
13520;SDS011;6832;51.186;3.236;2022-11-25T11:56:45;13.57;;;2.80;;
13520;SDS011;6832;51.186;3.236;2022-11-25T11:59:50;12.10;;;3.67;;
13520;SDS011;6832;51.186;3.236;2022-11-25T12:02:30;12.23;;;3.07;;
13520;SDS011;6832;51.186;3.236;2022-11-25T12:05:23;15.60;;;4.10;;
13520;SDS011;6832;51.186;3.236;2022-11-25T12:08:02;15.17;;;3.50;;
13520;SDS011;6832;51.186;3.236;2022-11-25T12:10:49;18.57;;;5.30;;
13520;SDS011;6832;51.186;3.236;2022-11-25T12:13:24;14.60;;;4.20;;
13520;SDS011;6832;51.186;3.236;2022-11-25T12:16:07;14.23;;;3.50;;
13520;SDS011;6832;51.186;3.236;2022-11-25T12:18:44;16.20;;;5.23;;
13520;SDS011;6832;51.186;3.236;2022-11-25T12:21:31;15.70;;;5.03;;
13520;SDS011;6832;51.186;3.236;2022-11-25T12:24:05;21.87;;;6.43;;
13520;SDS011;6832;51.186;3.236;2022-11-25T12:26:48;17.53;;;5.70;;
13520;SDS011;6832;51.186;3.236;2022-11-25T12:29:27;13.40;;;3.80;;
13520;SDS011;6832;51.186;3.236;2022-11-25T12:32:14;18.07;;;4.60;;
13520;SDS011;6832;51.186;3.236;2022-11-25T12:34:57;12.40;;;3.63;;
13520;SDS011;6832;51.186;3.236;2022-11-25T12:37:37;17.00;;;3.77;;
13520;SDS011;6832;51.186;3.236;2022-11-25T12:40:13;15.67;;;4.27;;
13520;SDS011;6832;51.186;3.236;2022-11-25T12:42:53;17.43;;;4.63;;
13520;SDS011;6832;51.186;3.236;2022-11-25T13:13:48;18.37;;;4.10;;
13520;SDS011;6832;51.186;3.236;2022-11-25T13:20:35;17.27;;;3.77;;
13520;SDS011;6832;51.186;3.236;2022-11-25T13:55:27;11.27;;;2.77;;
13520;SDS011;6832;51.186;3.236;2022-11-25T13:58:33;10.47;;;2.60;;
13520;SDS011;6832;51.186;3.236;2022-11-25T14:05:02;12.73;;;2.60;;
13520;SDS011;6832;51.186;3.236;2022-11-25T14:20:50;16.93;;;3.80;;
13520;SDS011;6832;51.186;3.236;2022-11-25T14:26:35;15.07;;;4.33;;
13520;SDS011;6832;51.186;3.236;2022-11-25T14:29:14;16.40;;;3.43;;
13520;SDS011;6832;51.186;3.236;2022-11-25T14:31:49;10.97;;;3.17;;
13520;SDS011;6832;51.186;3.236;2022-11-25T14:34:29;10.43;;;3.03;;
13520;SDS011;6832;51.186;3.236;2022-11-25T14:37:26;12.23;;;3.67;;
13520;SDS011;6832;51.186;3.236;2022-11-25T14:40:10;13.83;;;3.93;;
13520;SDS011;6832;51.186;3.236;2022-11-25T14:42:44;11.50;;;3.37;;
13520;SDS011;6832;51.186;3.236;2022-11-25T14:45:23;16.17;;;3.90;;
13520;SDS011;6832;51.186;3.236;2022-11-25T14:47:54;13.90;;;3.93;;
13520;SDS011;6832;51.186;3.236;2022-11-25T14:51:32;23.13;;;5.97;;
13520;SDS011;6832;51.186;3.236;2022-11-25T14:53:45;12.73;;;3.47;;
13520;SDS011;6832;51.186;3.236;2022-11-25T14:56:24;9.60;;;2.47;;
13520;SDS011;6832;51.186;3.236;2022-11-25T14:59:00;9.90;;;2.97;;
13520;SDS011;6832;51.186;3.236;2022-11-25T15:01:33;10.70;;;2.90;;
13520;SDS011;6832;51.186;3.236;2022-11-25T15:17:34;10.70;;;2.60;;
13520;SDS011;6832;51.186;3.236;2022-11-25T15:20:10;14.17;;;4.17;;
13520;SDS011;6832;51.186;3.236;2022-11-25T15:22:58;9.17;;;3.17;;
13520;SDS011;6832;51.186;3.236;2022-11-25T15:25:53;14.27;;;2.57;;
13520;SDS011;6832;51.186;3.236;2022-11-25T15:42:05;14.83;;;3.53;;
13520;SDS011;6832;51.186;3.236;2022-11-25T15:44:45;14.40;;;3.63;;
13520;SDS011;6832;51.186;3.236;2022-11-25T15:47:26;10.53;;;2.70;;
13520;SDS011;6832;51.186;3.236;2022-11-25T15:53:28;9.50;;;2.77;;
13520;SDS011;6832;51.186;3.236;2022-11-25T16:02:52;16.00;;;4.57;;
13520;SDS011;6832;51.186;3.236;2022-11-25T16:05:30;15.63;;;3.70;;
13520;SDS011;6832;51.186;3.236;2022-11-25T16:11:45;12.37;;;4.03;;
13520;SDS011;6832;51.186;3.236;2022-11-25T16:14:23;12.97;;;3.63;;
13520;SDS011;6832;51.186;3.236;2022-11-25T16:18:30;14.00;;;3.27;;
13520;SDS011;6832;51.186;3.236;2022-11-25T18:46:34;14.83;;;5.47;;
13520;SDS011;6832;51.186;3.236;2022-11-25T18:49:17;18.13;;;6.50;;
13520;SDS011;6832;51.186;3.236;2022-11-25T18:51:54;19.07;;;6.17;;
13520;SDS011;6832;51.186;3.236;2022-11-25T18:55:02;23.20;;;8.53;;
13520;SDS011;6832;51.186;3.236;2022-11-25T19:00:42;31.13;;;11.47;;
13520;SDS011;6832;51.186;3.236;2022-11-25T19:03:16;27.33;;;9.87;;
13520;SDS011;6832;51.186;3.236;2022-11-25T19:06:09;20.53;;;9.33;;
13520;SDS011;6832;51.186;3.236;2022-11-25T19:08:54;19.80;;;8.03;;
13520;SDS011;6832;51.186;3.236;2022-11-25T19:11:33;16.17;;;7.57;;
13520;SDS011;6832;51.186;3.236;2022-11-25T19:14:11;16.47;;;7.40;;
13520;SDS011;6832;51.186;3.236;2022-11-25T19:19:54;19.53;;;8.07;;
13520;SDS011;6832;51.186;3.236;2022-11-25T19:22:37;15.53;;;6.80;;
13520;SDS011;6832;51.186;3.236;2022-11-25T19:28:26;19.63;;;8.63;;
13520;SDS011;6832;51.186;3.236;2022-11-25T19:31:10;19.83;;;8.33;;
13520;SDS011;6832;51.186;3.236;2022-11-25T19:37:13;17.40;;;7.80;;
13520;SDS011;6832;51.186;3.236;2022-11-25T19:40:30;18.67;;;7.73;;
13520;SDS011;6832;51.186;3.236;2022-11-25T19:43:04;12.90;;;6.43;;
13520;SDS011;6832;51.186;3.236;2022-11-25T19:45:35;20.07;;;7.37;;
13520;SDS011;6832;51.186;3.236;2022-11-25T19:54:36;16.07;;;6.03;;
13520;SDS011;6832;51.186;3.236;2022-11-25T20:00:56;20.73;;;7.37;;
13520;SDS011;6832;51.186;3.236;2022-11-25T20:10:34;20.50;;;5.53;;
13520;SDS011;6832;51.186;3.236;2022-11-25T20:13:19;16.97;;;6.20;;
13520;SDS011;6832;51.186;3.236;2022-11-25T20:15:52;19.83;;;5.93;;
13520;SDS011;6832;51.186;3.236;2022-11-25T20:18:29;20.50;;;6.83;;
13520;SDS011;6832;51.186;3.236;2022-11-25T20:21:02;13.50;;;5.10;;
13520;SDS011;6832;51.186;3.236;2022-11-25T20:26:58;13.90;;;5.27;;
13520;SDS011;6832;51.186;3.236;2022-11-25T20:29:46;13.03;;;4.33;;
13520;SDS011;6832;51.186;3.236;2022-11-25T20:33:30;17.27;;;4.97;;
13520;SDS011;6832;51.186;3.236;2022-11-25T20:45:49;22.03;;;6.20;;
13520;SDS011;6832;51.186;3.236;2022-11-25T20:48:36;20.83;;;6.47;;
13520;SDS011;6832;51.186;3.236;2022-11-25T20:51:12;16.87;;;6.07;;
13520;SDS011;6832;51.186;3.236;2022-11-25T20:53:58;12.43;;;5.20;;
13520;SDS011;6832;51.186;3.236;2022-11-25T20:56:51;16.60;;;5.17;;
13520;SDS011;6832;51.186;3.236;2022-11-25T20:59:48;23.87;;;7.73;;
13520;SDS011;6832;51.186;3.236;2022-11-25T21:02:41;17.93;;;6.00;;
13520;SDS011;6832;51.186;3.236;2022-11-25T21:08:48;18.77;;;6.23;;
13520;SDS011;6832;51.186;3.236;2022-11-25T21:15:16;17.30;;;5.87;;
13520;SDS011;6832;51.186;3.236;2022-11-25T21:17:51;20.37;;;5.57;;
13520;SDS011;6832;51.186;3.236;2022-11-25T21:20:43;16.50;;;5.60;;
13520;SDS011;6832;51.186;3.236;2022-11-25T21:23:17;22.40;;;5.90;;
13520;SDS011;6832;51.186;3.236;2022-11-25T21:26:06;23.20;;;6.30;;
13520;SDS011;6832;51.186;3.236;2022-11-25T21:28:55;19.23;;;6.87;;
13520;SDS011;6832;51.186;3.236;2022-11-25T21:31:51;17.77;;;6.80;;
13520;SDS011;6832;51.186;3.236;2022-11-25T21:34:27;13.87;;;5.17;;
13520;SDS011;6832;51.186;3.236;2022-11-25T21:37:05;18.87;;;6.57;;
13520;SDS011;6832;51.186;3.236;2022-11-25T21:40:02;20.87;;;7.33;;
13520;SDS011;6832;51.186;3.236;2022-11-25T21:46:17;20.37;;;6.93;;
13520;SDS011;6832;51.186;3.236;2022-11-25T21:52:11;18.57;;;6.60;;
13520;SDS011;6832;51.186;3.236;2022-11-25T22:01:25;24.10;;;7.57;;
13520;SDS011;6832;51.186;3.236;2022-11-25T22:04:10;13.60;;;5.50;;
13520;SDS011;6832;51.186;3.236;2022-11-25T22:07:30;17.53;;;6.10;;
13520;SDS011;6832;51.186;3.236;2022-11-25T22:13:30;17.53;;;6.20;;
13520;SDS011;6832;51.186;3.236;2022-11-25T22:16:20;22.83;;;6.90;;
13520;SDS011;6832;51.186;3.236;2022-11-25T22:25:12;21.50;;;6.70;;
13520;SDS011;6832;51.186;3.236;2022-11-25T22:27:44;26.80;;;7.93;;
13520;SDS011;6832;51.186;3.236;2022-11-25T22:30:20;23.63;;;6.50;;
13520;SDS011;6832;51.186;3.236;2022-11-25T22:33:02;16.43;;;5.97;;
13520;SDS011;6832;51.186;3.236;2022-11-25T22:35:36;18.97;;;7.00;;
13520;SDS011;6832;51.186;3.236;2022-11-25T22:38:11;15.37;;;5.93;;
13520;SDS011;6832;51.186;3.236;2022-11-25T22:40:48;23.43;;;8.30;;
13520;SDS011;6832;51.186;3.236;2022-11-25T22:43:54;21.63;;;7.30;;
13520;SDS011;6832;51.186;3.236;2022-11-25T22:46:28;18.23;;;6.60;;
13520;SDS011;6832;51.186;3.236;2022-11-25T22:52:02;17.93;;;6.87;;
13520;SDS011;6832;51.186;3.236;2022-11-25T22:55:17;18.87;;;7.23;;
13520;SDS011;6832;51.186;3.236;2022-11-25T23:05:08;24.13;;;7.23;;
13520;SDS011;6832;51.186;3.236;2022-11-25T23:21:24;19.77;;;7.07;;
13520;SDS011;6832;51.186;3.236;2022-11-25T23:24:13;15.17;;;5.87;;
13520;SDS011;6832;51.186;3.236;2022-11-25T23:27:22;14.23;;;5.37;;
13520;SDS011;6832;51.186;3.236;2022-11-25T23:32:45;16.30;;;5.83;;
13520;SDS011;6832;51.186;3.236;2022-11-25T23:38:32;19.70;;;6.67;;
13520;SDS011;6832;51.186;3.236;2022-11-25T23:44:10;12.20;;;5.17;;
13520;SDS011;6832;51.186;3.236;2022-11-25T23:46:52;19.03;;;6.67;;
13520;SDS011;6832;51.186;3.236;2022-11-25T23:52:59;20.67;;;6.33;;
